sensor_id;sensor_type;location;lat;lon;timestamp;P1;durP1;ratioP1;P2;durP2;ratioP2
1759;SDS011;877;46.266;20.062;2022-11-15T00:05:33;32.75;;;21.55;;
1759;SDS011;877;46.266;20.062;2022-11-15T00:08:19;31.33;;;21.65;;
1759;SDS011;877;46.266;20.062;2022-11-15T00:10:58;29.75;;;20.83;;
1759;SDS011;877;46.266;20.062;2022-11-15T00:13:26;30.90;;;21.17;;
1759;SDS011;877;46.266;20.062;2022-11-15T00:18:29;32.63;;;20.60;;
1759;SDS011;877;46.266;20.062;2022-11-15T00:23:37;31.52;;;21.05;;
1759;SDS011;877;46.266;20.062;2022-11-15T00:26:04;28.77;;;20.52;;
1759;SDS011;877;46.266;20.062;2022-11-15T00:28:47;34.00;;;21.75;;
1759;SDS011;877;46.266;20.062;2022-11-15T00:31:16;32.00;;;23.00;;
1759;SDS011;877;46.266;20.062;2022-11-15T00:36:27;36.08;;;21.30;;
1759;SDS011;877;46.266;20.062;2022-11-15T00:38:55;34.30;;;21.75;;
1759;SDS011;877;46.266;20.062;2022-11-15T00:46:33;31.73;;;21.25;;
1759;SDS011;877;46.266;20.062;2022-11-15T00:51:28;36.25;;;21.95;;
1759;SDS011;877;46.266;20.062;2022-11-15T00:54:04;28.48;;;18.95;;
1759;SDS011;877;46.266;20.062;2022-11-15T00:56:31;31.83;;;21.38;;
1759;SDS011;877;46.266;20.062;2022-11-15T00:58:58;28.83;;;20.10;;
1759;SDS011;877;46.266;20.062;2022-11-15T01:01:24;28.88;;;20.55;;
1759;SDS011;877;46.266;20.062;2022-11-15T01:06:38;31.85;;;20.63;;
1759;SDS011;877;46.266;20.062;2022-11-15T01:14:29;29.45;;;19.85;;
1759;SDS011;877;46.266;20.062;2022-11-15T01:16:57;27.02;;;19.40;;
1759;SDS011;877;46.266;20.062;2022-11-15T01:19:24;30.55;;;19.08;;
1759;SDS011;877;46.266;20.062;2022-11-15T01:21:52;29.35;;;21.00;;
1759;SDS011;877;46.266;20.062;2022-11-15T01:24:23;28.33;;;19.98;;
1759;SDS011;877;46.266;20.062;2022-11-15T01:26:49;29.45;;;20.17;;
1759;SDS011;877;46.266;20.062;2022-11-15T01:29:21;32.90;;;19.65;;
1759;SDS011;877;46.266;20.062;2022-11-15T01:31:53;30.45;;;19.60;;
1759;SDS011;877;46.266;20.062;2022-11-15T01:34:27;26.77;;;19.05;;
1759;SDS011;877;46.266;20.062;2022-11-15T01:42:01;29.92;;;20.17;;
1759;SDS011;877;46.266;20.062;2022-11-15T01:47:22;27.23;;;20.20;;
1759;SDS011;877;46.266;20.062;2022-11-15T01:50:02;27.50;;;17.88;;
1759;SDS011;877;46.266;20.062;2022-11-15T01:52:30;28.60;;;17.02;;
1759;SDS011;877;46.266;20.062;2022-11-15T01:57:45;28.50;;;19.63;;
1759;SDS011;877;46.266;20.062;2022-11-15T02:03:02;23.80;;;16.98;;
1759;SDS011;877;46.266;20.062;2022-11-15T02:05:31;26.38;;;17.45;;
1759;SDS011;877;46.266;20.062;2022-11-15T02:10:46;27.67;;;19.83;;
1759;SDS011;877;46.266;20.062;2022-11-15T02:16:21;24.05;;;17.48;;
1759;SDS011;877;46.266;20.062;2022-11-15T02:27:16;24.20;;;16.92;;
1759;SDS011;877;46.266;20.062;2022-11-15T02:35:48;23.33;;;17.05;;
1759;SDS011;877;46.266;20.062;2022-11-15T02:41:46;22.90;;;15.93;;
1759;SDS011;877;46.266;20.062;2022-11-15T02:44:14;25.20;;;18.90;;
1759;SDS011;877;46.266;20.062;2022-11-15T02:50:00;23.85;;;16.63;;
1759;SDS011;877;46.266;20.062;2022-11-15T02:52:28;24.98;;;17.15;;
1759;SDS011;877;46.266;20.062;2022-11-15T02:54:56;24.90;;;15.40;;
1759;SDS011;877;46.266;20.062;2022-11-15T03:00:22;26.45;;;17.60;;
1759;SDS011;877;46.266;20.062;2022-11-15T03:14:25;24.90;;;17.88;;
1759;SDS011;877;46.266;20.062;2022-11-15T03:24:46;23.83;;;16.40;;
1759;SDS011;877;46.266;20.062;2022-11-15T03:27:17;25.60;;;16.90;;
1759;SDS011;877;46.266;20.062;2022-11-15T03:29:56;22.40;;;15.02;;
1759;SDS011;877;46.266;20.062;2022-11-15T03:32:36;22.48;;;15.55;;
1759;SDS011;877;46.266;20.062;2022-11-15T03:35:05;23.67;;;14.57;;
1759;SDS011;877;46.266;20.062;2022-11-15T03:40:37;24.20;;;16.30;;
1759;SDS011;877;46.266;20.062;2022-11-15T03:45:59;24.58;;;15.40;;
1759;SDS011;877;46.266;20.062;2022-11-15T03:51:43;20.73;;;15.25;;
1759;SDS011;877;46.266;20.062;2022-11-15T03:54:11;19.15;;;13.88;;
1759;SDS011;877;46.266;20.062;2022-11-15T03:56:37;21.05;;;14.25;;
1759;SDS011;877;46.266;20.062;2022-11-15T03:59:05;21.48;;;14.00;;
1759;SDS011;877;46.266;20.062;2022-11-15T04:01:31;23.02;;;14.70;;
1759;SDS011;877;46.266;20.062;2022-11-15T04:04:13;18.10;;;13.60;;
1759;SDS011;877;46.266;20.062;2022-11-15T04:06:40;19.90;;;14.57;;
1759;SDS011;877;46.266;20.062;2022-11-15T04:09:15;21.23;;;14.93;;
1759;SDS011;877;46.266;20.062;2022-11-15T04:11:46;22.35;;;15.32;;
1759;SDS011;877;46.266;20.062;2022-11-15T04:14:14;20.67;;;15.13;;
1759;SDS011;877;46.266;20.062;2022-11-15T04:16:43;23.90;;;15.05;;
1759;SDS011;877;46.266;20.062;2022-11-15T04:24:51;23.60;;;15.70;;
1759;SDS011;877;46.266;20.062;2022-11-15T04:27:22;22.70;;;14.50;;
1759;SDS011;877;46.266;20.062;2022-11-15T04:32:18;21.50;;;15.40;;
1759;SDS011;877;46.266;20.062;2022-11-15T04:37:28;24.15;;;16.13;;
1759;SDS011;877;46.266;20.062;2022-11-15T04:39:56;20.77;;;14.52;;
1759;SDS011;877;46.266;20.062;2022-11-15T04:42:35;22.02;;;15.32;;
1759;SDS011;877;46.266;20.062;2022-11-15T04:47:59;26.88;;;16.80;;
1759;SDS011;877;46.266;20.062;2022-11-15T04:52:55;22.95;;;14.85;;
1759;SDS011;877;46.266;20.062;2022-11-15T04:55:22;25.25;;;15.27;;
1759;SDS011;877;46.266;20.062;2022-11-15T04:57:56;25.63;;;15.50;;
1759;SDS011;877;46.266;20.062;2022-11-15T05:00:31;24.75;;;15.70;;
1759;SDS011;877;46.266;20.062;2022-11-15T05:03:03;26.17;;;17.30;;
1759;SDS011;877;46.266;20.062;2022-11-15T05:05:52;23.88;;;16.48;;
1759;SDS011;877;46.266;20.062;2022-11-15T05:08:29;27.70;;;17.10;;
1759;SDS011;877;46.266;20.062;2022-11-15T05:14:06;26.70;;;16.90;;
1759;SDS011;877;46.266;20.062;2022-11-15T05:19:09;27.80;;;17.25;;
1759;SDS011;877;46.266;20.062;2022-11-15T05:24:22;25.08;;;17.48;;
1759;SDS011;877;46.266;20.062;2022-11-15T05:26:58;25.05;;;17.30;;
1759;SDS011;877;46.266;20.062;2022-11-15T05:29:34;29.58;;;17.30;;
1759;SDS011;877;46.266;20.062;2022-11-15T05:38:01;53.60;;;34.10;;
1759;SDS011;877;46.266;20.062;2022-11-15T05:40:34;40.50;;;26.20;;
1759;SDS011;877;46.266;20.062;2022-11-15T05:43:15;30.55;;;19.15;;
1759;SDS011;877;46.266;20.062;2022-11-15T05:45:42;26.70;;;17.63;;
1759;SDS011;877;46.266;20.062;2022-11-15T05:48:10;32.40;;;20.48;;
1759;SDS011;877;46.266;20.062;2022-11-15T05:53:21;30.35;;;19.27;;
1759;SDS011;877;46.266;20.062;2022-11-15T05:55:55;30.92;;;19.17;;
1759;SDS011;877;46.266;20.062;2022-11-15T06:00:56;27.73;;;17.63;;
1759;SDS011;877;46.266;20.062;2022-11-15T06:03:24;26.65;;;18.40;;
1759;SDS011;877;46.266;20.062;2022-11-15T06:05:58;33.10;;;21.25;;
1759;SDS011;877;46.266;20.062;2022-11-15T06:08:25;33.97;;;20.92;;
1759;SDS011;877;46.266;20.062;2022-11-15T06:10:52;34.42;;;21.17;;
1759;SDS011;877;46.266;20.062;2022-11-15T06:13:22;37.20;;;22.17;;
1759;SDS011;877;46.266;20.062;2022-11-15T06:15:58;32.17;;;19.85;;
1759;SDS011;877;46.266;20.062;2022-11-15T06:18:35;29.08;;;18.83;;
1759;SDS011;877;46.266;20.062;2022-11-15T06:23:34;30.60;;;19.50;;
1759;SDS011;877;46.266;20.062;2022-11-15T06:26:02;32.30;;;20.27;;
1759;SDS011;877;46.266;20.062;2022-11-15T06:28:40;29.10;;;18.55;;
1759;SDS011;877;46.266;20.062;2022-11-15T06:31:13;33.28;;;20.08;;
1759;SDS011;877;46.266;20.062;2022-11-15T06:33:46;27.92;;;19.05;;
1759;SDS011;877;46.266;20.062;2022-11-15T06:36:19;32.13;;;21.80;;
1759;SDS011;877;46.266;20.062;2022-11-15T06:38:53;32.40;;;20.42;;
1759;SDS011;877;46.266;20.062;2022-11-15T06:44:04;32.72;;;22.80;;
1759;SDS011;877;46.266;20.062;2022-11-15T06:46:31;32.90;;;23.05;;
1759;SDS011;877;46.266;20.062;2022-11-15T06:51:27;31.50;;;20.27;;
1759;SDS011;877;46.266;20.062;2022-11-15T06:54:01;32.28;;;22.25;;
1759;SDS011;877;46.266;20.062;2022-11-15T06:59:00;33.30;;;20.00;;
1759;SDS011;877;46.266;20.062;2022-11-15T07:01:26;35.33;;;21.38;;
1759;SDS011;877;46.266;20.062;2022-11-15T07:06:30;31.38;;;19.58;;
1759;SDS011;877;46.266;20.062;2022-11-15T07:09:04;35.58;;;18.58;;
1759;SDS011;877;46.266;20.062;2022-11-15T07:11:32;33.15;;;20.23;;
1759;SDS011;877;46.266;20.062;2022-11-15T07:14:00;30.33;;;20.33;;
1759;SDS011;877;46.266;20.062;2022-11-15T07:19:14;36.42;;;20.45;;
1759;SDS011;877;46.266;20.062;2022-11-15T07:24:14;101.75;;;64.60;;
1759;SDS011;877;46.266;20.062;2022-11-15T07:29:23;29.30;;;17.45;;
1759;SDS011;877;46.266;20.062;2022-11-15T07:31:56;31.77;;;17.13;;
1759;SDS011;877;46.266;20.062;2022-11-15T07:34:24;32.03;;;17.95;;
1759;SDS011;877;46.266;20.062;2022-11-15T07:36:51;30.45;;;18.08;;
1759;SDS011;877;46.266;20.062;2022-11-15T07:39:21;30.27;;;18.35;;
1759;SDS011;877;46.266;20.062;2022-11-15T07:41:53;33.25;;;17.83;;
1759;SDS011;877;46.266;20.062;2022-11-15T07:44:40;35.92;;;19.35;;
1759;SDS011;877;46.266;20.062;2022-11-15T07:49:48;28.65;;;17.38;;
1759;SDS011;877;46.266;20.062;2022-11-15T07:54:56;26.60;;;17.55;;
1759;SDS011;877;46.266;20.062;2022-11-15T08:02:27;25.98;;;15.38;;
1759;SDS011;877;46.266;20.062;2022-11-15T08:04:55;28.65;;;18.05;;
1759;SDS011;877;46.266;20.062;2022-11-15T08:07:29;29.52;;;17.92;;
1759;SDS011;877;46.266;20.062;2022-11-15T08:10:11;37.25;;;19.38;;
1759;SDS011;877;46.266;20.062;2022-11-15T08:12:37;33.85;;;17.33;;
1759;SDS011;877;46.266;20.062;2022-11-15T08:15:19;32.28;;;18.70;;
1759;SDS011;877;46.266;20.062;2022-11-15T08:17:46;33.75;;;18.80;;
1759;SDS011;877;46.266;20.062;2022-11-15T08:23:09;27.83;;;16.42;;
1759;SDS011;877;46.266;20.062;2022-11-15T08:25:41;34.35;;;19.70;;
1759;SDS011;877;46.266;20.062;2022-11-15T08:33:12;28.20;;;16.08;;
1759;SDS011;877;46.266;20.062;2022-11-15T08:35:41;29.50;;;15.60;;
1759;SDS011;877;46.266;20.062;2022-11-15T08:38:10;35.20;;;18.30;;
1759;SDS011;877;46.266;20.062;2022-11-15T08:40:42;31.08;;;17.40;;
1759;SDS011;877;46.266;20.062;2022-11-15T08:43:14;31.30;;;17.80;;
1759;SDS011;877;46.266;20.062;2022-11-15T08:45:40;24.42;;;15.43;;
1759;SDS011;877;46.266;20.062;2022-11-15T08:48:11;56.35;;;35.80;;
1759;SDS011;877;46.266;20.062;2022-11-15T08:50:38;32.65;;;19.80;;
1759;SDS011;877;46.266;20.062;2022-11-15T08:58:18;30.85;;;17.95;;
1759;SDS011;877;46.266;20.062;2022-11-15T09:00:52;32.60;;;18.45;;
1759;SDS011;877;46.266;20.062;2022-11-15T09:03:19;39.53;;;19.38;;
1759;SDS011;877;46.266;20.062;2022-11-15T09:05:48;32.00;;;18.20;;
1759;SDS011;877;46.266;20.062;2022-11-15T09:08:18;31.40;;;16.92;;
1759;SDS011;877;46.266;20.062;2022-11-15T09:10:49;30.35;;;16.80;;
1759;SDS011;877;46.266;20.062;2022-11-15T09:13:17;32.60;;;19.58;;
1759;SDS011;877;46.266;20.062;2022-11-15T09:18:30;34.30;;;16.17;;
1759;SDS011;877;46.266;20.062;2022-11-15T09:20:59;27.00;;;15.63;;
1759;SDS011;877;46.266;20.062;2022-11-15T09:23:30;30.65;;;17.02;;
1759;SDS011;877;46.266;20.062;2022-11-15T09:26:02;25.73;;;15.48;;
1759;SDS011;877;46.266;20.062;2022-11-15T09:28:29;28.55;;;16.08;;
1759;SDS011;877;46.266;20.062;2022-11-15T09:31:02;23.92;;;14.75;;
1759;SDS011;877;46.266;20.062;2022-11-15T09:33:30;26.13;;;15.32;;
1759;SDS011;877;46.266;20.062;2022-11-15T09:39:04;28.80;;;15.02;;
1759;SDS011;877;46.266;20.062;2022-11-15T09:49:20;27.05;;;14.55;;
1759;SDS011;877;46.266;20.062;2022-11-15T09:51:52;29.40;;;16.48;;
1759;SDS011;877;46.266;20.062;2022-11-15T09:54:35;30.58;;;17.08;;
1759;SDS011;877;46.266;20.062;2022-11-15T09:57:03;26.35;;;16.00;;
1759;SDS011;877;46.266;20.062;2022-11-15T10:02:23;27.88;;;16.92;;
1759;SDS011;877;46.266;20.062;2022-11-15T10:07:37;24.88;;;16.42;;
1759;SDS011;877;46.266;20.062;2022-11-15T10:12:37;27.80;;;15.57;;
1759;SDS011;877;46.266;20.062;2022-11-15T10:15:05;25.95;;;14.90;;
1759;SDS011;877;46.266;20.062;2022-11-15T10:20:31;26.73;;;16.42;;
1759;SDS011;877;46.266;20.062;2022-11-15T10:28:15;28.55;;;15.98;;
1759;SDS011;877;46.266;20.062;2022-11-15T10:30:45;31.27;;;18.02;;
1759;SDS011;877;46.266;20.062;2022-11-15T10:33:21;33.58;;;19.52;;
1759;SDS011;877;46.266;20.062;2022-11-15T10:36:14;35.53;;;19.50;;
1759;SDS011;877;46.266;20.062;2022-11-15T10:50:11;36.10;;;20.63;;
1759;SDS011;877;46.266;20.062;2022-11-15T10:53:04;39.70;;;22.15;;
1759;SDS011;877;46.266;20.062;2022-11-15T10:55:50;42.13;;;21.88;;
1759;SDS011;877;46.266;20.062;2022-11-15T11:01:18;34.53;;;20.67;;
1759;SDS011;877;46.266;20.062;2022-11-15T11:04:00;39.47;;;22.33;;
1759;SDS011;877;46.266;20.062;2022-11-15T11:08:57;31.98;;;21.23;;
1759;SDS011;877;46.266;20.062;2022-11-15T11:11:25;41.55;;;23.23;;
1759;SDS011;877;46.266;20.062;2022-11-15T11:13:51;39.92;;;24.15;;
1759;SDS011;877;46.266;20.062;2022-11-15T11:17:00;44.03;;;23.83;;
1759;SDS011;877;46.266;20.062;2022-11-15T11:19:20;44.80;;;25.90;;
1759;SDS011;877;46.266;20.062;2022-11-15T11:33:16;45.67;;;25.35;;
1759;SDS011;877;46.266;20.062;2022-11-15T11:35:50;54.03;;;28.77;;
1759;SDS011;877;46.266;20.062;2022-11-15T11:57:40;44.80;;;24.50;;
1759;SDS011;877;46.266;20.062;2022-11-15T12:00:16;43.17;;;25.02;;
1759;SDS011;877;46.266;20.062;2022-11-15T12:02:50;39.13;;;23.33;;
1759;SDS011;877;46.266;20.062;2022-11-15T12:08:52;45.65;;;26.17;;
1759;SDS011;877;46.266;20.062;2022-11-15T12:11:01;89.72;;;53.42;;
1759;SDS011;877;46.266;20.062;2022-11-15T12:16:28;52.30;;;32.00;;
1759;SDS011;877;46.266;20.062;2022-11-15T12:18:56;348.17;;;134.40;;
1759;SDS011;877;46.266;20.062;2022-11-15T12:29:45;59.83;;;34.10;;
1759;SDS011;877;46.266;20.062;2022-11-15T12:32:33;98.47;;;63.30;;
1759;SDS011;877;46.266;20.062;2022-11-15T12:43:02;53.47;;;32.83;;
1759;SDS011;877;46.266;20.062;2022-11-15T12:45:32;51.05;;;29.40;;
1759;SDS011;877;46.266;20.062;2022-11-15T12:50:58;77.30;;;38.60;;
1759;SDS011;877;46.266;20.062;2022-11-15T12:53:34;55.20;;;31.17;;
1759;SDS011;877;46.266;20.062;2022-11-15T12:59:06;42.20;;;26.67;;
1759;SDS011;877;46.266;20.062;2022-11-15T13:07:01;45.03;;;25.80;;
1759;SDS011;877;46.266;20.062;2022-11-15T13:14:42;46.70;;;28.47;;
1759;SDS011;877;46.266;20.062;2022-11-15T13:30:54;48.07;;;29.10;;
1759;SDS011;877;46.266;20.062;2022-11-15T13:33:22;49.50;;;29.10;;
1759;SDS011;877;46.266;20.062;2022-11-15T13:35:54;43.40;;;26.50;;
1759;SDS011;877;46.266;20.062;2022-11-15T13:40:52;51.10;;;30.20;;
1759;SDS011;877;46.266;20.062;2022-11-15T13:43:26;57.83;;;33.40;;
1759;SDS011;877;46.266;20.062;2022-11-15T13:51:46;57.53;;;34.40;;
1759;SDS011;877;46.266;20.062;2022-11-15T13:59:34;52.40;;;29.70;;
1759;SDS011;877;46.266;20.062;2022-11-15T14:02:14;47.80;;;29.67;;
1759;SDS011;877;46.266;20.062;2022-11-15T14:04:58;143.93;;;84.17;;
1759;SDS011;877;46.266;20.062;2022-11-15T14:10:46;51.37;;;30.90;;
1759;SDS011;877;46.266;20.062;2022-11-15T14:15:51;52.47;;;29.10;;
1759;SDS011;877;46.266;20.062;2022-11-15T14:21:06;44.53;;;28.17;;
1759;SDS011;877;46.266;20.062;2022-11-15T14:23:41;50.10;;;28.60;;
1759;SDS011;877;46.266;20.062;2022-11-15T14:26:11;51.00;;;31.17;;
1759;SDS011;877;46.266;20.062;2022-11-15T14:28:53;54.50;;;32.53;;
1759;SDS011;877;46.266;20.062;2022-11-15T14:31:20;50.27;;;33.60;;
1759;SDS011;877;46.266;20.062;2022-11-15T14:33:47;55.90;;;32.77;;
1759;SDS011;877;46.266;20.062;2022-11-15T14:36:17;59.57;;;37.57;;
1759;SDS011;877;46.266;20.062;2022-11-15T14:38:47;55.20;;;31.70;;
1759;SDS011;877;46.266;20.062;2022-11-15T14:41:23;51.00;;;32.93;;
1759;SDS011;877;46.266;20.062;2022-11-15T14:46:18;50.03;;;31.67;;
1759;SDS011;877;46.266;20.062;2022-11-15T14:48:46;65.67;;;35.53;;
1759;SDS011;877;46.266;20.062;2022-11-15T14:51:17;72.77;;;42.70;;
1759;SDS011;877;46.266;20.062;2022-11-15T14:53:45;98.90;;;56.87;;
1759;SDS011;877;46.266;20.062;2022-11-15T14:59:03;76.80;;;48.03;;
1759;SDS011;877;46.266;20.062;2022-11-15T15:01:35;101.43;;;54.55;;
1759;SDS011;877;46.266;20.062;2022-11-15T15:04:02;104.60;;;59.87;;
1759;SDS011;877;46.266;20.062;2022-11-15T15:06:40;127.43;;;69.57;;
1759;SDS011;877;46.266;20.062;2022-11-15T15:09:16;77.40;;;48.23;;
1759;SDS011;877;46.266;20.062;2022-11-15T15:14:16;66.50;;;41.53;;
1759;SDS011;877;46.266;20.062;2022-11-15T15:16:44;61.10;;;39.40;;
1759;SDS011;877;46.266;20.062;2022-11-15T15:19:23;67.37;;;42.13;;
1759;SDS011;877;46.266;20.062;2022-11-15T15:21:49;82.13;;;48.05;;
1759;SDS011;877;46.266;20.062;2022-11-15T15:24:23;78.80;;;44.97;;
1759;SDS011;877;46.266;20.062;2022-11-15T15:27:02;79.07;;;44.17;;
1759;SDS011;877;46.266;20.062;2022-11-15T15:29:41;69.73;;;42.70;;
1759;SDS011;877;46.266;20.062;2022-11-15T15:32:12;64.50;;;41.75;;
1759;SDS011;877;46.266;20.062;2022-11-15T15:37:25;65.93;;;38.85;;
1759;SDS011;877;46.266;20.062;2022-11-15T15:39:52;145.83;;;70.47;;
1759;SDS011;877;46.266;20.062;2022-11-15T15:42:20;132.63;;;64.35;;
1759;SDS011;877;46.266;20.062;2022-11-15T15:47:20;155.98;;;76.13;;
1759;SDS011;877;46.266;20.062;2022-11-15T15:49:48;120.10;;;60.15;;
1759;SDS011;877;46.266;20.062;2022-11-15T15:52:20;112.30;;;53.13;;
1759;SDS011;877;46.266;20.062;2022-11-15T15:54:51;97.68;;;54.60;;
1759;SDS011;877;46.266;20.062;2022-11-15T15:57:17;82.77;;;44.13;;
1759;SDS011;877;46.266;20.062;2022-11-15T15:59:44;77.03;;;41.63;;
1759;SDS011;877;46.266;20.062;2022-11-15T16:02:11;185.65;;;108.10;;
1759;SDS011;877;46.266;20.062;2022-11-15T16:04:38;94.00;;;54.83;;
1759;SDS011;877;46.266;20.062;2022-11-15T16:07:04;79.65;;;48.72;;
1759;SDS011;877;46.266;20.062;2022-11-15T16:12:38;110.20;;;59.50;;
1759;SDS011;877;46.266;20.062;2022-11-15T16:15:05;104.53;;;57.00;;
1759;SDS011;877;46.266;20.062;2022-11-15T16:20:21;107.93;;;57.63;;
1759;SDS011;877;46.266;20.062;2022-11-15T16:27:59;118.73;;;64.87;;
1759;SDS011;877;46.266;20.062;2022-11-15T16:33:03;129.48;;;69.63;;
1759;SDS011;877;46.266;20.062;2022-11-15T16:35:31;143.70;;;74.90;;
1759;SDS011;877;46.266;20.062;2022-11-15T16:38:12;135.32;;;72.90;;
1759;SDS011;877;46.266;20.062;2022-11-15T16:40:53;126.23;;;74.80;;
1759;SDS011;877;46.266;20.062;2022-11-15T16:45:53;125.27;;;64.47;;
1759;SDS011;877;46.266;20.062;2022-11-15T16:48:25;135.83;;;72.37;;
1759;SDS011;877;46.266;20.062;2022-11-15T16:51:04;168.40;;;92.13;;
1759;SDS011;877;46.266;20.062;2022-11-15T16:53:32;159.52;;;82.70;;
1759;SDS011;877;46.266;20.062;2022-11-15T16:58:40;215.90;;;113.70;;
1759;SDS011;877;46.266;20.062;2022-11-15T17:01:10;198.83;;;113.40;;
1759;SDS011;877;46.266;20.062;2022-11-15T17:03:41;205.43;;;116.43;;
1759;SDS011;877;46.266;20.062;2022-11-15T17:06:09;143.75;;;76.40;;
1759;SDS011;877;46.266;20.062;2022-11-15T17:08:44;117.00;;;62.50;;
1759;SDS011;877;46.266;20.062;2022-11-15T17:11:13;151.93;;;94.17;;
1759;SDS011;877;46.266;20.062;2022-11-15T17:13:49;136.98;;;82.57;;
1759;SDS011;877;46.266;20.062;2022-11-15T17:16:19;136.93;;;90.17;;
1759;SDS011;877;46.266;20.062;2022-11-15T17:18:49;86.80;;;48.83;;
1759;SDS011;877;46.266;20.062;2022-11-15T17:21:21;82.50;;;48.80;;
1759;SDS011;877;46.266;20.062;2022-11-15T17:23:47;95.60;;;54.80;;
1759;SDS011;877;46.266;20.062;2022-11-15T17:28:53;225.13;;;114.50;;
1759;SDS011;877;46.266;20.062;2022-11-15T17:31:20;156.53;;;82.30;;
1759;SDS011;877;46.266;20.062;2022-11-15T17:36:35;102.82;;;56.25;;
1759;SDS011;877;46.266;20.062;2022-11-15T17:39:03;134.30;;;73.00;;
1759;SDS011;877;46.266;20.062;2022-11-15T17:44:14;99.93;;;53.45;;
1759;SDS011;877;46.266;20.062;2022-11-15T17:46:42;84.40;;;45.77;;
1759;SDS011;877;46.266;20.062;2022-11-15T17:49:12;85.00;;;48.20;;
1759;SDS011;877;46.266;20.062;2022-11-15T17:51:39;98.88;;;55.20;;
1759;SDS011;877;46.266;20.062;2022-11-15T17:54:09;121.40;;;60.83;;
1759;SDS011;877;46.266;20.062;2022-11-15T17:56:51;112.28;;;61.53;;
1759;SDS011;877;46.266;20.062;2022-11-15T17:59:18;118.28;;;63.65;;
1759;SDS011;877;46.266;20.062;2022-11-15T18:01:44;138.07;;;69.97;;
1759;SDS011;877;46.266;20.062;2022-11-15T18:04:11;161.40;;;81.57;;
1759;SDS011;877;46.266;20.062;2022-11-15T18:06:39;137.17;;;70.77;;
1759;SDS011;877;46.266;20.062;2022-11-15T18:09:13;163.37;;;79.63;;
1759;SDS011;877;46.266;20.062;2022-11-15T18:11:40;132.07;;;63.17;;
1759;SDS011;877;46.266;20.062;2022-11-15T18:14:12;161.93;;;76.97;;
1759;SDS011;877;46.266;20.062;2022-11-15T18:19:23;138.13;;;66.93;;
1759;SDS011;877;46.266;20.062;2022-11-15T18:21:55;138.32;;;65.38;;
1759;SDS011;877;46.266;20.062;2022-11-15T18:24:31;133.77;;;64.37;;
1759;SDS011;877;46.266;20.062;2022-11-15T18:27:00;149.70;;;73.17;;
1759;SDS011;877;46.266;20.062;2022-11-15T18:29:27;137.90;;;67.60;;
1759;SDS011;877;46.266;20.062;2022-11-15T18:31:53;138.35;;;67.65;;
1759;SDS011;877;46.266;20.062;2022-11-15T18:34:26;166.85;;;72.03;;
1759;SDS011;877;46.266;20.062;2022-11-15T18:37:02;159.57;;;75.50;;
1759;SDS011;877;46.266;20.062;2022-11-15T18:42:00;149.90;;;74.70;;
1759;SDS011;877;46.266;20.062;2022-11-15T18:47:18;174.77;;;81.83;;
1759;SDS011;877;46.266;20.062;2022-11-15T18:49:52;148.27;;;78.60;;
1759;SDS011;877;46.266;20.062;2022-11-15T18:54:47;153.83;;;73.77;;
1759;SDS011;877;46.266;20.062;2022-11-15T18:57:19;151.90;;;75.77;;
1759;SDS011;877;46.266;20.062;2022-11-15T18:59:46;176.67;;;77.70;;
1759;SDS011;877;46.266;20.062;2022-11-15T19:02:17;168.53;;;70.60;;
1759;SDS011;877;46.266;20.062;2022-11-15T19:04:44;157.00;;;72.47;;
1759;SDS011;877;46.266;20.062;2022-11-15T19:07:28;163.97;;;71.50;;
1759;SDS011;877;46.266;20.062;2022-11-15T19:12:28;156.97;;;76.00;;
1759;SDS011;877;46.266;20.062;2022-11-15T19:14:55;173.43;;;79.60;;
1759;SDS011;877;46.266;20.062;2022-11-15T19:17:22;173.70;;;72.43;;
1759;SDS011;877;46.266;20.062;2022-11-15T19:19:50;166.83;;;70.20;;
1759;SDS011;877;46.266;20.062;2022-11-15T19:22:24;159.40;;;70.20;;
1759;SDS011;877;46.266;20.062;2022-11-15T19:24:51;152.93;;;70.00;;
1759;SDS011;877;46.266;20.062;2022-11-15T19:27:21;188.17;;;76.67;;
1759;SDS011;877;46.266;20.062;2022-11-15T19:29:54;167.40;;;76.77;;
1759;SDS011;877;46.266;20.062;2022-11-15T19:32:21;193.77;;;87.53;;
1759;SDS011;877;46.266;20.062;2022-11-15T19:34:48;161.73;;;68.70;;
1759;SDS011;877;46.266;20.062;2022-11-15T19:37:29;154.07;;;70.53;;
1759;SDS011;877;46.266;20.062;2022-11-15T19:39:56;155.60;;;75.47;;
1759;SDS011;877;46.266;20.062;2022-11-15T19:42:35;168.40;;;74.90;;
1759;SDS011;877;46.266;20.062;2022-11-15T19:45:14;168.73;;;75.60;;
1759;SDS011;877;46.266;20.062;2022-11-15T19:47:41;154.43;;;73.13;;
1759;SDS011;877;46.266;20.062;2022-11-15T19:52:57;162.40;;;71.50;;
1759;SDS011;877;46.266;20.062;2022-11-15T19:55:24;165.67;;;72.30;;
1759;SDS011;877;46.266;20.062;2022-11-15T19:57:52;153.50;;;65.50;;
1759;SDS011;877;46.266;20.062;2022-11-15T20:00:20;145.35;;;67.15;;
1759;SDS011;877;46.266;20.062;2022-11-15T20:02:46;146.37;;;68.87;;
1759;SDS011;877;46.266;20.062;2022-11-15T20:05:29;157.40;;;67.47;;
1759;SDS011;877;46.266;20.062;2022-11-15T20:08:03;145.77;;;63.83;;
1759;SDS011;877;46.266;20.062;2022-11-15T20:13:14;150.90;;;61.67;;
1759;SDS011;877;46.266;20.062;2022-11-15T20:15:41;156.20;;;65.20;;
1759;SDS011;877;46.266;20.062;2022-11-15T20:18:09;148.43;;;64.67;;
1759;SDS011;877;46.266;20.062;2022-11-15T20:23:18;152.53;;;66.33;;
1759;SDS011;877;46.266;20.062;2022-11-15T20:25:47;160.10;;;69.13;;
1759;SDS011;877;46.266;20.062;2022-11-15T20:31:05;168.35;;;73.25;;
1759;SDS011;877;46.266;20.062;2022-11-15T20:33:39;169.02;;;76.35;;
1759;SDS011;877;46.266;20.062;2022-11-15T20:36:06;159.53;;;67.87;;
1759;SDS011;877;46.266;20.062;2022-11-15T20:43:40;131.13;;;61.57;;
1759;SDS011;877;46.266;20.062;2022-11-15T20:46:10;152.23;;;65.53;;
1759;SDS011;877;46.266;20.062;2022-11-15T20:48:38;141.23;;;58.70;;
1759;SDS011;877;46.266;20.062;2022-11-15T20:51:06;149.50;;;61.10;;
1759;SDS011;877;46.266;20.062;2022-11-15T20:53:46;128.60;;;59.37;;
1759;SDS011;877;46.266;20.062;2022-11-15T20:56:19;136.93;;;59.67;;
1759;SDS011;877;46.266;20.062;2022-11-15T21:01:33;138.20;;;59.90;;
1759;SDS011;877;46.266;20.062;2022-11-15T21:03:59;140.17;;;61.47;;
1759;SDS011;877;46.266;20.062;2022-11-15T21:06:27;153.45;;;63.08;;
1759;SDS011;877;46.266;20.062;2022-11-15T21:08:55;153.60;;;63.87;;
1759;SDS011;877;46.266;20.062;2022-11-15T21:11:45;145.90;;;62.90;;
1759;SDS011;877;46.266;20.062;2022-11-15T21:14:32;150.83;;;63.60;;
1759;SDS011;877;46.266;20.062;2022-11-15T21:17:00;156.33;;;60.80;;
1759;SDS011;877;46.266;20.062;2022-11-15T21:19:35;145.93;;;61.50;;
1759;SDS011;877;46.266;20.062;2022-11-15T21:24:35;136.30;;;58.77;;
1759;SDS011;877;46.266;20.062;2022-11-15T21:27:15;143.20;;;62.22;;
1759;SDS011;877;46.266;20.062;2022-11-15T21:29:50;143.40;;;59.33;;
1759;SDS011;877;46.266;20.062;2022-11-15T21:32:17;138.63;;;54.93;;
1759;SDS011;877;46.266;20.062;2022-11-15T21:34:43;164.55;;;62.15;;
1759;SDS011;877;46.266;20.062;2022-11-15T21:37:10;170.50;;;61.83;;
1759;SDS011;877;46.266;20.062;2022-11-15T21:39:38;138.80;;;57.53;;
1759;SDS011;877;46.266;20.062;2022-11-15T21:44:35;146.67;;;57.23;;
1759;SDS011;877;46.266;20.062;2022-11-15T21:47:03;168.87;;;63.20;;
1759;SDS011;877;46.266;20.062;2022-11-15T21:49:29;174.27;;;65.97;;
1759;SDS011;877;46.266;20.062;2022-11-15T21:57:17;203.30;;;69.00;;
1759;SDS011;877;46.266;20.062;2022-11-15T21:59:46;182.60;;;69.97;;